Time;durP1;ratioP1;P1;durP2;ratioP2;P2;SDS_P1;SDS_P2;PMS_P1;PMS_P2;Temp;Humidity;BMP_temperature;BMP_pressure;BME280_temperature;BME280_humidity;BME280_pressure;Samples;Min_cycle;Max_cycle;Signal;HPM_P1;HPM_P2
2021/12/16 00:34:03;;;;;;;23.58;11.25;;;6.00;99.90;;;;;;5088301;28;20428;-53
2021/12/16 00:36:35;;;;;;;25.20;11.73;;;5.90;99.90;;;;;;5089408;28;20378;-53
2021/12/16 00:39:15;;;;;;;22.85;11.10;;;5.90;99.90;;;;;;5091854;28;20381;-53
2021/12/16 00:41:44;;;;;;;21.58;11.25;;;5.80;99.90;;;;;;5092240;28;20951;-53
2021/12/16 00:49:43;;;;;;;21.95;10.68;;;5.60;99.90;;;;;;5093233;28;20455;-55
2021/12/16 00:55:12;;;;;;;20.47;10.57;;;5.60;99.90;;;;;;5092345;28;20431;-54
2021/12/16 00:57:38;;;;;;;22.60;11.07;;;5.60;99.90;;;;;;5092616;28;20443;-58
2021/12/16 01:00:07;;;;;;;20.45;10.88;;;5.60;99.90;;;;;;5092764;28;20377;-54
2021/12/16 01:02:58;;;;;;;20.10;9.98;;;5.60;99.90;;;;;;5092858;28;20381;-54
2021/12/16 01:33:45;;;;;;;18.92;9.02;;;6.00;99.90;;;;;;5091980;28;20465;-54
2021/12/16 01:36:28;;;;;;;19.65;9.55;;;6.00;99.90;;;;;;5092227;28;20370;-54
2021/12/16 01:49:49;;;;;;;;;;;;;;;;;;;;;
2021/12/16 01:52:31;;;;;;;17.60;8.63;;;6.00;99.90;;;;;;5091621;28;20456;-54
2021/12/16 01:55:06;;;;;;;16.35;7.53;;;6.20;99.90;;;;;;5090747;28;20386;-54
2021/12/16 01:57:50;;;;;;;17.50;8.75;;;6.20;99.90;;;;;;5091962;28;20378;-54
2021/12/16 02:00:27;;;;;;;16.27;7.82;;;6.20;99.90;;;;;;5092014;28;20439;-54
2021/12/16 02:03:00;;;;;;;14.75;7.68;;;6.20;99.90;;;;;;5090955;28;20516;-54
2021/12/16 02:10:39;;;;;;;16.77;8.50;;;6.30;99.90;;;;;;5091468;28;20400;-54
2021/12/16 02:34:29;;;;;;;17.30;8.45;;;6.50;99.90;;;;;;5090883;28;20863;-52
2021/12/16 02:36:56;;;;;;;15.95;8.85;;;6.50;99.90;;;;;;5090175;28;20499;-52
2021/12/16 02:39:34;;;;;;;16.90;8.90;;;6.60;99.90;;;;;;5090489;28;20369;-52
2021/12/16 02:42:11;;;;;;;17.92;9.07;;;6.70;99.90;;;;;;5090003;28;20823;-52
2021/12/16 02:50:06;;;;;;;16.20;8.30;;;6.60;99.90;;;;;;5089812;28;20406;-54
2021/12/16 02:52:32;;;;;;;16.67;8.02;;;6.60;99.90;;;;;;5090141;28;20378;-54
2021/12/16 02:54:58;;;;;;;16.80;8.67;;;6.50;99.90;;;;;;5088100;28;20386;-52
2021/12/16 02:57:25;;;;;;;16.80;9.10;;;6.50;99.90;;;;;;5090379;28;20467;-52
2021/12/16 02:59:52;;;;;;;15.00;7.80;;;6.40;99.90;;;;;;5087757;28;20743;-52
2021/12/16 03:02:19;;;;;;;16.23;8.40;;;6.50;99.90;;;;;;5089870;28;20374;-52
2021/12/16 03:04:51;;;;;;;17.00;8.67;;;6.60;99.90;;;;;;5089332;28;20404;-52
2021/12/16 03:07:18;;;;;;;15.95;8.35;;;6.70;99.90;;;;;;5090040;28;20378;-52
2021/12/16 03:15:00;;;;;;;16.52;8.70;;;6.50;99.90;;;;;;5089219;28;20776;-52
2021/12/16 03:17:36;;;;;;;16.20;8.70;;;6.50;99.90;;;;;;5089951;28;20371;-56
2021/12/16 03:20:26;;;;;;;16.70;8.57;;;6.40;99.90;;;;;;5097366;28;20396;-54
2021/12/16 03:35:51;;;;;;;18.15;9.57;;;6.00;99.90;;;;;;5090010;28;20370;-53
2021/12/16 03:38:17;;;;;;;20.03;10.40;;;5.80;99.90;;;;;;5089942;28;20725;-52
2021/12/16 03:40:43;;;;;;;19.43;9.87;;;6.00;99.90;;;;;;5089290;28;20447;-57
2021/12/16 03:43:13;;;;;;;19.03;9.50;;;6.00;99.90;;;;;;5089071;28;20393;-53
2021/12/16 03:49:17;;;;;;;20.23;10.68;;;6.20;99.90;;;;;;5089428;28;20401;-53
2021/12/16 03:51:59;;;;;;;19.38;10.35;;;6.20;99.90;;;;;;5096884;28;20465;-58
2021/12/16 03:54:30;;;;;;;20.73;10.60;;;6.20;99.90;;;;;;5109705;28;20382;-53
2021/12/16 03:56:58;;;;;;;19.83;10.20;;;6.20;99.90;;;;;;5109244;28;20379;-53
2021/12/16 03:59:27;;;;;;;20.02;10.35;;;6.20;99.90;;;;;;5109868;28;20858;-53
2021/12/16 04:01:55;;;;;;;19.27;10.23;;;6.10;99.90;;;;;;5107949;28;20376;-53
2021/12/16 04:04:21;;;;;;;19.35;9.82;;;6.10;99.90;;;;;;5108456;28;20413;-53
2021/12/16 04:06:47;;;;;;;21.23;11.20;;;6.10;99.90;;;;;;5108709;28;20414;-55
2021/12/16 04:09:15;;;;;;;19.40;10.45;;;6.20;99.90;;;;;;5109926;28;20384;-54
2021/12/16 04:11:51;;;;;;;20.55;10.15;;;6.20;99.90;;;;;;5109549;28;20403;-53
2021/12/16 04:14:18;;;;;;;19.50;9.82;;;6.20;99.90;;;;;;5109271;28;20535;-54
2021/12/16 04:16:50;;;;;;;18.30;9.87;;;6.10;99.90;;;;;;5109463;28;20384;-57
2021/12/16 04:19:19;;;;;;;21.48;10.70;;;6.20;99.90;;;;;;5091968;28;20389;-53
2021/12/16 04:21:52;;;;;;;19.10;10.40;;;6.10;99.90;;;;;;5101549;28;20475;-58
2021/12/16 04:24:19;;;;;;;22.02;10.90;;;6.20;99.90;;;;;;5109345;28;20845;-53
2021/12/16 04:26:46;;;;;;;21.13;10.57;;;6.20;99.90;;;;;;5109129;28;20422;-58
2021/12/16 04:29:13;;;;;;;17.75;9.27;;;6.20;99.90;;;;;;5109297;28;20411;-53
2021/12/16 04:31:40;;;;;;;21.13;10.48;;;6.10;99.90;;;;;;5109479;28;20440;-53
2021/12/16 04:34:07;;;;;;;21.33;11.52;;;6.20;99.90;;;;;;5108536;28;20692;-55
2021/12/16 04:36:34;;;;;;;19.25;10.15;;;6.20;99.90;;;;;;5109962;28;20459;-54
2021/12/16 04:39:01;;;;;;;19.20;10.13;;;6.20;99.90;;;;;;5108257;28;20376;-55
2021/12/16 04:41:27;;;;;;;21.38;10.55;;;6.10;99.90;;;;;;5109351;28;20379;-54
2021/12/16 04:43:56;;;;;;;22.98;12.13;;;6.20;99.90;;;;;;5108796;28;20414;-54
2021/12/16 04:46:27;;;;;;;18.58;10.60;;;6.10;99.90;;;;;;5108819;28;20445;-54
2021/12/16 04:48:55;;;;;;;21.40;10.80;;;6.20;99.90;;;;;;5107071;28;20376;-54
2021/12/16 04:51:24;;;;;;;21.00;11.50;;;6.20;99.90;;;;;;5089271;28;20378;-51
2021/12/16 04:53:49;;;;;;;19.45;10.18;;;6.30;99.90;;;;;;5088045;28;20390;-51
2021/12/16 04:56:16;;;;;;;21.70;10.77;;;6.40;99.90;;;;;;5089074;28;20366;-53
2021/12/16 04:58:45;;;;;;;20.45;11.20;;;6.60;99.90;;;;;;5088869;28;20778;-53
2021/12/16 05:01:11;;;;;;;22.60;11.15;;;6.50;99.90;;;;;;5088454;28;20402;-52
2021/12/16 05:03:37;;;;;;;20.93;10.80;;;6.60;99.90;;;;;;5088670;28;20406;-53
2021/12/16 05:06:04;;;;;;;20.77;10.82;;;6.60;99.90;;;;;;5088034;28;20421;-52
2021/12/16 05:08:30;;;;;;;18.10;9.93;;;6.70;99.90;;;;;;5088843;28;20374;-52
2021/12/16 05:10:59;;;;;;;18.20;9.73;;;6.80;99.90;;;;;;5096146;28;20873;-52
2021/12/16 05:13:26;;;;;;;20.08;10.10;;;6.80;99.90;;;;;;5109104;28;20427;-54
2021/12/16 05:15:56;;;;;;;20.57;10.33;;;6.60;99.90;;;;;;5108394;28;20940;-53
2021/12/16 05:18:29;;;;;;;19.15;10.05;;;6.60;99.90;;;;;;5108930;28;20431;-53
2021/12/16 05:20:56;;;;;;;20.25;10.15;;;6.60;99.90;;;;;;5106900;28;20419;-53
2021/12/16 05:26:17;;;;;;;20.42;10.32;;;6.60;99.90;;;;;;5107280;28;21056;-53
2021/12/16 05:28:50;;;;;;;23.10;11.50;;;6.50;99.90;;;;;;5096097;28;20409;-53
2021/12/16 05:31:17;;;;;;;19.25;10.27;;;6.60;99.90;;;;;;5092759;28;20402;-53
2021/12/16 05:33:43;;;;;;;20.08;10.88;;;6.70;99.90;;;;;;5091380;28;20397;-53
2021/12/16 05:36:09;;;;;;;21.02;11.15;;;6.60;99.90;;;;;;5094631;28;20401;-53
2021/12/16 05:38:35;;;;;;;24.38;11.00;;;6.60;99.90;;;;;;5095089;28;20377;-55
2021/12/16 05:41:03;;;;;;;21.67;10.30;;;6.50;99.90;;;;;;5090982;28;20394;-53
2021/12/16 05:43:30;;;;;;;22.02;10.10;;;6.50;99.90;;;;;;5092008;28;20538;-53
2021/12/16 05:45:57;;;;;;;22.00;10.30;;;6.60;99.90;;;;;;5091651;28;20881;-54
2021/12/16 05:48:25;;;;;;;19.90;10.80;;;6.60;99.90;;;;;;5093811;28;20429;-53
2021/12/16 05:50:59;;;;;;;21.75;10.43;;;6.60;99.90;;;;;;5090307;28;20398;-54
2021/12/16 05:53:24;;;;;;;21.20;11.15;;;6.70;99.90;;;;;;5091385;28;20873;-53
2021/12/16 05:55:52;;;;;;;22.50;10.77;;;6.70;99.90;;;;;;5091946;28;20409;-54
2021/12/16 05:58:18;;;;;;;24.70;11.80;;;6.70;99.90;;;;;;5110678;28;20368;-53
2021/12/16 06:00:47;;;;;;;23.97;11.30;;;6.60;99.90;;;;;;5101554;28;20476;-57
2021/12/16 06:03:13;;;;;;;24.42;12.18;;;6.60;99.90;;;;;;5092135;28;20967;-53
2021/12/16 06:05:39;;;;;;;25.60;12.60;;;6.70;99.90;;;;;;5096534;28;20434;-53
2021/12/16 06:08:05;;;;;;;24.50;12.00;;;6.80;99.90;;;;;;5092644;27;20382;-53
2021/12/16 06:13:17;;;;;;;24.75;12.90;;;6.80;99.90;;;;;;5110402;28;20734;-53
2021/12/16 06:28:56;;;;;;;23.63;11.82;;;6.70;99.90;;;;;;5110874;28;20460;-54
2021/12/16 06:31:21;;;;;;;25.03;12.10;;;6.60;99.90;;;;;;5109353;28;20471;-53
2021/12/16 06:33:48;;;;;;;23.70;11.13;;;6.60;99.90;;;;;;5109012;28;20400;-57
2021/12/16 06:36:14;;;;;;;24.83;12.00;;;6.50;99.90;;;;;;5110355;28;20384;-53
2021/12/16 06:38:39;;;;;;;22.95;11.55;;;6.50;99.90;;;;;;5110952;28;20737;-53
2021/12/16 06:41:05;;;;;;;21.40;11.45;;;6.60;99.90;;;;;;5110278;28;20742;-53
2021/12/16 06:43:33;;;;;;;23.37;11.57;;;6.50;99.90;;;;;;5111056;28;20507;-53
2021/12/16 06:46:01;;;;;;;21.50;11.50;;;6.50;99.90;;;;;;5110378;28;20392;-53
2021/12/16 06:48:31;;;;;;;20.58;11.02;;;6.50;99.90;;;;;;5111015;28;20376;-54
2021/12/16 06:51:05;;;;;;;22.92;12.40;;;6.60;99.90;;;;;;5109565;28;20372;-53
2021/12/16 06:53:44;;;;;;;24.67;12.75;;;6.60;99.90;;;;;;5090638;28;20500;-53
2021/12/16 06:56:21;;;;;;;25.17;11.60;;;6.60;99.90;;;;;;5088509;28;20564;-53
2021/12/16 06:58:51;;;;;;;27.80;12.43;;;6.60;99.90;;;;;;5089842;28;20743;-59
2021/12/16 07:04:18;;;;;;;25.52;13.13;;;6.70;99.90;;;;;;5070532;28;20414;-54
2021/12/16 07:06:44;;;;;;;24.52;12.02;;;6.70;99.90;;;;;;5110868;28;20380;-53
2021/12/16 07:09:15;;;;;;;25.70;12.55;;;6.70;99.90;;;;;;5109135;28;21201;-53
2021/12/16 07:11:49;;;;;;;27.30;14.40;;;6.70;99.90;;;;;;5110259;28;20715;-53
2021/12/16 07:14:16;;;;;;;31.20;14.90;;;6.50;99.90;;;;;;5109887;28;20441;-54
2021/12/16 07:16:48;;;;;;;28.92;13.23;;;6.20;99.90;;;;;;5110522;28;20386;-53
2021/12/16 07:19:15;;;;;;;29.90;14.50;;;6.10;99.90;;;;;;5109918;28;20384;-53
2021/12/16 07:21:42;;;;;;;29.52;14.35;;;6.10;99.90;;;;;;5109932;28;20389;-54
2021/12/16 07:24:11;;;;;;;32.72;14.90;;;6.10;99.90;;;;;;5109478;28;20419;-53
2021/12/16 07:26:38;;;;;;;29.58;14.25;;;6.00;99.90;;;;;;5108537;28;20967;-54
2021/12/16 07:29:05;;;;;;;28.40;13.27;;;6.10;99.90;;;;;;5108078;28;20384;-53
2021/12/16 07:31:31;;;;;;;28.67;15.00;;;6.30;99.90;;;;;;5106823;28;20476;-54
2021/12/16 07:33:57;;;;;;;27.05;12.80;;;6.20;99.90;;;;;;5089733;28;20447;-54
2021/12/16 07:36:24;;;;;;;27.48;13.32;;;6.30;99.90;;;;;;5089762;28;20416;-54
2021/12/16 07:38:50;;;;;;;29.48;13.40;;;6.40;99.90;;;;;;5108267;28;20377;-59
2021/12/16 07:41:20;;;;;;;25.35;12.57;;;6.50;99.90;;;;;;5109929;28;20418;-55
2021/12/16 07:44:09;;;;;;;25.15;12.38;;;6.50;99.90;;;;;;5109369;28;20404;-54
2021/12/16 07:46:38;;;;;;;27.83;13.27;;;6.60;99.90;;;;;;5104547;28;20752;-55
2021/12/16 07:49:10;;;;;;;26.40;12.48;;;6.60;99.90;;;;;;5092107;28;20457;-54
2021/12/16 07:51:37;;;;;;;26.25;12.38;;;6.80;99.90;;;;;;5109570;28;20380;-55
2021/12/16 07:54:03;;;;;;;27.50;12.88;;;6.70;99.90;;;;;;5100088;28;20941;-54
2021/12/16 07:56:29;;;;;;;26.00;12.70;;;6.80;99.90;;;;;;5090616;28;20714;-54
2021/12/16 07:58:55;;;;;;;27.50;11.85;;;6.70;99.90;;;;;;5094213;28;20370;-54
2021/12/16 08:01:22;;;;;;;29.50;12.90;;;6.70;99.90;;;;;;5089401;28;20385;-54
2021/12/16 08:03:48;;;;;;;27.85;14.15;;;6.70;99.90;;;;;;5089334;28;20377;-59
2021/12/16 08:06:21;;;;;;;27.03;12.90;;;6.80;99.90;;;;;;5088297;28;20501;-54
2021/12/16 08:08:47;;;;;;;24.20;12.82;;;6.90;99.90;;;;;;5089286;28;20744;-54
2021/12/16 08:11:14;;;;;;;28.23;13.55;;;6.80;99.90;;;;;;5088485;28;20375;-54
2021/12/16 08:13:39;;;;;;;28.27;13.30;;;6.80;99.90;;;;;;5101222;28;20506;-54
2021/12/16 08:16:06;;;;;;;26.08;12.43;;;6.90;99.90;;;;;;5106899;28;20908;-54
2021/12/16 08:18:32;;;;;;;26.40;12.40;;;7.10;99.90;;;;;;5096694;28;20408;-54
2021/12/16 08:20:58;;;;;;;26.80;12.93;;;7.20;99.90;;;;;;5108186;28;20388;-54
2021/12/16 08:23:23;;;;;;;25.23;12.80;;;7.20;99.90;;;;;;5109532;28;20373;-55
2021/12/16 08:25:49;;;;;;;24.80;12.57;;;7.30;99.90;;;;;;5105162;28;20416;-59
2021/12/16 08:28:15;;;;;;;26.80;12.17;;;7.40;99.90;;;;;;5108746;28;20372;-54
2021/12/16 08:30:44;;;;;;;25.00;12.30;;;7.30;99.90;;;;;;5102669;28;20393;-54
2021/12/16 08:33:12;;;;;;;25.35;13.38;;;7.30;99.90;;;;;;5106309;28;20384;-53
2021/12/16 08:35:42;;;;;;;23.33;12.80;;;7.20;99.90;;;;;;5105956;28;20471;-53
2021/12/16 08:38:10;;;;;;;26.35;12.80;;;7.20;99.90;;;;;;5099267;28;20380;-54
2021/12/16 08:40:36;;;;;;;24.92;12.95;;;7.20;99.90;;;;;;5099870;28;20881;-54
2021/12/16 08:43:02;;;;;;;26.45;12.63;;;7.20;99.90;;;;;;5105438;28;20494;-54
2021/12/16 08:45:31;;;;;;;28.88;13.30;;;7.20;99.90;;;;;;5109013;28;20493;-54
2021/12/16 08:47:58;;;;;;;29.23;13.30;;;7.20;99.90;;;;;;5099322;28;20393;-54
2021/12/16 08:50:28;;;;;;;27.95;12.35;;;7.20;99.90;;;;;;5106329;28;20432;-52
2021/12/16 08:52:55;;;;;;;26.40;12.07;;;7.20;99.90;;;;;;5103338;28;20372;-53
2021/12/16 08:55:21;;;;;;;27.95;13.52;;;7.20;99.90;;;;;;5108491;28;20384;-53
2021/12/16 08:57:47;;;;;;;26.40;12.57;;;7.20;99.90;;;;;;5109030;28;20376;-52
2021/12/16 09:00:18;;;;;;;31.17;15.00;;;7.20;99.90;;;;;;5111437;28;20893;-52
2021/12/16 09:02:44;;;;;;;29.92;14.40;;;8.40;99.90;;;;;;5105135;28;20389;-52
2021/12/16 09:05:10;;;;;;;30.13;14.15;;;7.20;99.90;;;;;;5102246;28;20429;-52
2021/12/16 09:07:36;;;;;;;33.20;16.40;;;7.30;99.90;;;;;;5106776;28;20407;-54
2021/12/16 09:10:03;;;;;;;30.60;14.40;;;7.40;99.90;;;;;;5108774;28;20372;-53
2021/12/16 09:15:06;;;;;;;27.15;13.32;;;7.40;99.90;;;;;;5109058;28;20414;-52
2021/12/16 09:17:32;;;;;;;27.88;13.32;;;7.40;99.90;;;;;;5112066;28;20441;-55
2021/12/16 09:19:57;;;;;;;28.92;14.05;;;7.30;99.90;;;;;;5112854;27;20373;-55
2021/12/16 09:22:26;;;;;;;30.00;14.63;;;7.20;99.90;;;;;;5121033;27;20493;-52
2021/12/16 09:24:53;;;;;;;27.38;13.35;;;7.30;99.90;;;;;;5107386;27;20426;-56
2021/12/16 09:27:19;;;;;;;27.17;13.60;;;7.20;99.90;;;;;;5109990;27;20408;-52
2021/12/16 09:29:46;;;;;;;29.17;13.77;;;7.20;99.90;;;;;;5112487;27;20475;-52
2021/12/16 09:32:12;;;;;;;26.13;13.75;;;7.20;99.90;;;;;;5111154;28;20380;-52
2021/12/16 09:34:40;;;;;;;31.07;13.30;;;7.20;99.90;;;;;;5111285;28;20387;-52
2021/12/16 09:37:06;;;;;;;25.30;13.02;;;7.10;99.90;;;;;;5110951;28;20802;-52
2021/12/16 09:39:33;;;;;;;26.73;12.83;;;7.10;99.90;;;;;;5112434;28;20368;-52
2021/12/16 09:41:59;;;;;;;30.88;14.23;;;7.10;99.90;;;;;;5111644;28;20436;-53
2021/12/16 09:44:27;;;;;;;30.87;13.43;;;7.10;99.90;;;;;;5112436;28;20404;-52
2021/12/16 09:46:55;;;;;;;27.55;13.52;;;7.10;99.90;;;;;;5111413;28;20384;-57
2021/12/16 09:49:24;;;;;;;27.20;13.35;;;7.10;99.90;;;;;;5104608;27;20865;-53
2021/12/16 09:51:55;;;;;;;27.25;14.05;;;7.00;99.90;;;;;;5091354;28;20378;-57
2021/12/16 09:54:25;;;;;;;27.20;14.00;;;7.10;99.90;;;;;;5091575;28;20394;-52
2021/12/16 09:56:53;;;;;;;29.35;14.90;;;7.20;99.90;;;;;;5101021;28;20874;-57
2021/12/16 09:59:22;;;;;;;29.85;14.40;;;7.30;99.90;;;;;;5109676;28;20436;-54
2021/12/16 10:01:50;;;;;;;27.98;13.80;;;7.30;99.90;;;;;;5103557;28;20694;-53
2021/12/16 10:04:21;;;;;;;29.07;13.40;;;7.30;99.90;;;;;;5111154;28;20495;-53
2021/12/16 10:06:51;;;;;;;27.13;12.82;;;7.40;99.90;;;;;;5112029;28;20794;-52
2021/12/16 10:09:18;;;;;;;25.75;13.25;;;7.30;99.90;;;;;;5109097;28;20766;-57
2021/12/16 10:11:47;;;;;;;31.17;13.70;;;7.30;99.90;;;;;;5110341;28;20698;-53
2021/12/16 10:19:26;;;;;;;29.55;14.70;;;7.30;99.90;;;;;;5111617;28;20367;-53
2021/12/16 10:21:54;;;;;;;28.10;14.23;;;7.30;99.90;;;;;;5110945;28;20395;-58
2021/12/16 10:24:32;;;;;;;26.03;13.27;;;7.50;99.90;;;;;;5111274;28;20483;-53
2021/12/16 10:27:08;;;;;;;28.23;14.10;;;7.60;99.90;;;;;;5110368;28;20869;-53
2021/12/16 10:29:46;;;;;;;25.48;13.88;;;7.60;99.90;;;;;;5106843;27;20424;-53
2021/12/16 10:32:40;;;;;;;27.65;12.98;;;7.70;99.90;;;;;;5105484;27;20406;-53
2021/12/16 10:35:12;;;;;;;28.10;13.90;;;7.70;99.90;;;;;;5089490;28;20382;-54
2021/12/16 10:37:42;;;;;;;26.23;13.18;;;7.80;99.90;;;;;;5090930;28;20382;-53
2021/12/16 10:40:29;;;;;;;25.40;12.98;;;7.80;99.90;;;;;;5089794;28;20389;-53
2021/12/16 10:42:57;;;;;;;28.15;14.05;;;7.80;99.90;;;;;;5089544;28;20401;-57
2021/12/16 10:45:28;;;;;;;24.35;12.88;;;7.70;99.90;;;;;;5090618;28;20486;-54
2021/12/16 10:48:25;;;;;;;23.48;12.23;;;7.80;99.90;;;;;;5089974;28;20429;-57
2021/12/16 10:50:53;;;;;;;26.73;12.93;;;7.70;99.90;;;;;;5090770;28;20847;-57
2021/12/16 10:53:57;;;;;;;28.87;13.70;;;7.80;99.90;;;;;;5090179;28;20451;-53
2021/12/16 10:56:41;;;;;;;22.37;12.07;;;7.70;99.90;;;;;;5090364;28;20400;-53
2021/12/16 10:59:10;;;;;;;26.98;13.43;;;7.70;99.90;;;;;;5089430;28;20511;-53
2021/12/16 11:01:56;;;;;;;27.50;13.50;;;7.70;99.90;;;;;;5090324;28;20386;-53
2021/12/16 11:04:32;;;;;;;29.95;14.57;;;7.70;99.90;;;;;;5090583;28;20441;-53
2021/12/16 11:07:06;;;;;;;25.65;13.35;;;7.80;99.90;;;;;;5089636;28;20382;-53
2021/12/16 11:09:47;;;;;;;27.08;13.85;;;7.80;99.90;;;;;;5090127;28;20420;-53
2021/12/16 11:12:17;;;;;;;25.55;13.63;;;7.80;99.90;;;;;;5088118;28;20430;-53
2021/12/16 11:15:09;;;;;;;25.77;13.20;;;7.70;99.90;;;;;;5090198;28;20576;-53
2021/12/16 11:17:43;;;;;;;26.40;13.48;;;7.80;99.90;;;;;;5087987;28;20747;-53
2021/12/16 11:20:17;;;;;;;26.73;14.57;;;7.70;99.90;;;;;;5089240;28;20436;-53
2021/12/16 11:22:43;;;;;;;27.65;14.82;;;7.80;99.90;;;;;;5089022;28;20383;-53
2021/12/16 11:25:32;;;;;;;65.32;33.78;;;7.70;99.90;;;;;;5088859;28;20518;-53
2021/12/16 11:28:09;;;;;;;32.05;15.68;;;7.80;99.90;;;;;;5088894;28;20558;-53
2021/12/16 11:30:48;;;;;;;26.02;14.00;;;7.80;99.90;;;;;;5089947;28;20385;-53
2021/12/16 11:33:33;;;;;;;23.67;12.60;;;7.90;99.90;;;;;;5089071;28;20374;-53
2021/12/16 11:36:07;;;;;;;25.08;13.68;;;7.90;99.90;;;;;;5088997;28;20397;-53
2021/12/16 11:38:44;;;;;;;25.77;14.30;;;7.90;99.90;;;;;;5089496;28;20724;-53
2021/12/16 11:42:00;;;;;;;28.45;14.10;;;8.00;99.90;;;;;;5087633;28;20393;-53
2021/12/16 11:44:33;;;;;;;28.27;14.13;;;8.00;99.90;;;;;;5086265;28;20467;-53
2021/12/16 11:47:04;;;;;;;28.00;14.20;;;8.00;99.90;;;;;;5089401;28;20389;-53
2021/12/16 11:49:35;;;;;;;26.80;13.15;;;8.10;99.90;;;;;;5089378;28;20380;-56
2021/12/16 11:52:16;;;;;;;99.75;47.47;;;8.20;99.90;;;;;;5088810;28;20382;-53
2021/12/16 11:55:09;;;;;;;55.90;28.67;;;8.10;99.90;;;;;;5089743;28;20478;-53
2021/12/16 11:57:45;;;;;;;94.53;54.40;;;7.90;99.90;;;;;;5089221;28;20484;-53
2021/12/16 12:00:25;;;;;;;38.15;21.10;;;7.90;99.90;;;;;;5088730;28;20510;-55
2021/12/16 12:02:54;;;;;;;31.20;16.30;;;8.10;99.90;;;;;;5089287;28;20390;-56
2021/12/16 12:05:30;;;;;;;26.47;13.43;;;8.30;99.90;;;;;;5087674;28;20737;-55
2021/12/16 12:07:58;;;;;;;25.38;12.93;;;8.30;99.90;;;;;;5087307;28;20794;-60
2021/12/16 12:10:43;;;;;;;25.30;13.43;;;8.50;99.90;;;;;;5089465;28;21017;-54
2021/12/16 12:13:34;;;;;;;26.48;12.98;;;8.50;99.90;;;;;;5096275;28;20733;-53
2021/12/16 12:16:04;;;;;;;25.45;13.07;;;8.40;99.90;;;;;;5107379;28;20494;-54
2021/12/16 12:18:45;;;;;;;25.37;12.87;;;8.30;99.90;;;;;;5109593;28;20467;-54
2021/12/16 12:21:29;;;;;;;41.55;17.52;;;8.40;99.90;;;;;;5109159;28;20395;-54
2021/12/16 12:24:15;;;;;;;32.10;17.60;;;8.40;99.90;;;;;;5109086;28;20380;-59
2021/12/16 12:26:55;;;;;;;29.35;14.18;;;8.50;99.90;;;;;;5109229;28;20368;-54
2021/12/16 12:29:30;;;;;;;23.75;12.60;;;8.60;99.90;;;;;;5109095;28;20463;-53
2021/12/16 12:32:08;;;;;;;23.38;12.48;;;8.30;99.90;;;;;;5109189;28;20452;-58
2021/12/16 12:34:36;;;;;;;30.10;12.90;;;8.20;99.90;;;;;;5112979;28;20372;-54
2021/12/16 12:37:06;;;;;;;24.55;12.05;;;8.30;99.90;;;;;;5112884;28;20408;-54
2021/12/16 12:39:36;;;;;;;24.55;13.02;;;8.50;99.90;;;;;;5113600;28;20376;-54
2021/12/16 12:42:03;;;;;;;26.17;12.77;;;8.70;99.90;;;;;;5112990;28;20382;-54
2021/12/16 12:44:29;;;;;;;27.08;14.63;;;8.70;99.90;;;;;;5113260;28;20473;-54
2021/12/16 12:46:58;;;;;;;23.95;12.90;;;8.80;99.90;;;;;;5113319;28;20387;-58
2021/12/16 12:49:28;;;;;;;25.13;12.60;;;8.80;99.90;;;;;;5111878;28;20441;-55
2021/12/16 12:52:08;;;;;;;26.80;14.25;;;8.90;99.90;;;;;;5112037;28;20380;-60
2021/12/16 12:54:35;;;;;;;26.63;13.88;;;9.00;99.90;;;;;;5113497;28;20380;-55
2021/12/16 12:57:25;;;;;;;26.27;14.10;;;9.20;99.90;;;;;;5112207;28;20373;-55
2021/12/16 12:59:51;;;;;;;31.65;16.83;;;9.30;99.90;;;;;;5113395;28;20403;-57
2021/12/16 13:02:34;;;;;;;25.70;12.57;;;9.60;99.90;;;;;;5112933;28;20369;-56
2021/12/16 13:05:16;;;;;;;26.25;13.98;;;9.60;99.90;;;;;;5112911;28;20491;-56
2021/12/16 13:07:46;;;;;;;25.60;13.50;;;9.70;99.90;;;;;;5112166;28;20392;-55
2021/12/16 13:10:18;;;;;;;26.90;13.75;;;9.70;99.90;;;;;;5111882;28;20381;-55
2021/12/16 13:13:05;;;;;;;26.50;12.73;;;9.80;99.90;;;;;;5112906;28;20403;-55
2021/12/16 13:27:08;;;;;;;26.53;13.80;;;9.30;99.90;;;;;;5112737;28;20371;-56
2021/12/16 13:30:03;;;;;;;23.40;12.50;;;9.40;99.90;;;;;;5112688;28;20458;-57
2021/12/16 13:32:28;;;;;;;24.23;12.30;;;9.50;99.90;;;;;;5111937;27;20388;-56
2021/12/16 13:35:21;;;;;;;21.77;12.48;;;9.60;99.90;;;;;;5112642;28;20379;-55
2021/12/16 13:37:50;;;;;;;21.03;10.80;;;9.60;99.90;;;;;;5112791;28;20368;-55
2021/12/16 13:40:30;;;;;;;22.77;12.17;;;9.60;99.90;;;;;;5111743;28;20606;-56
2021/12/16 13:43:05;;;;;;;26.05;12.23;;;9.50;99.90;;;;;;5111998;28;20749;-61
2021/12/16 13:45:38;;;;;;;26.30;13.38;;;9.40;99.90;;;;;;5111522;28;20426;-56
2021/12/16 14:05:42;;;;;;;21.85;10.63;;;9.20;99.90;;;;;;5112019;28;20399;-55
2021/12/16 14:08:13;;;;;;;22.30;11.23;;;9.20;99.90;;;;;;5111406;28;20411;-56
2021/12/16 14:16:41;;;;;;;21.97;11.23;;;9.20;99.90;;;;;;5111078;28;20461;-55
2021/12/16 14:25:40;;;;;;;22.48;11.32;;;9.30;99.90;;;;;;5110383;28;20423;-56
2021/12/16 14:31:19;;;;;;;20.88;10.70;;;9.00;99.90;;;;;;5110855;28;20865;-58
2021/12/16 14:45:39;;;;;;;22.75;12.15;;;8.90;99.90;;;;;;5109779;28;20410;-55
2021/12/16 14:51:03;;;;;;;26.67;12.60;;;8.90;99.90;;;;;;5107996;28;20895;-57
2021/12/16 14:53:47;;;;;;;22.70;12.02;;;9.00;99.90;;;;;;5108288;28;20407;-57
2021/12/16 14:56:18;;;;;;;25.80;13.52;;;8.80;99.90;;;;;;5106053;28;20383;-57
2021/12/16 14:58:48;;;;;;;27.25;13.30;;;8.90;99.90;;;;;;5093129;28;20391;-56
2021/12/16 15:01:19;;;;;;;26.10;13.10;;;8.80;99.90;;;;;;5104932;28;20377;-56
2021/12/16 15:03:47;;;;;;;25.27;13.02;;;9.40;99.90;;;;;;5110502;27;20381;-56
2021/12/16 15:06:19;;;;;;;24.77;13.27;;;8.90;99.90;;;;;;5109603;28;20404;-56
2021/12/16 15:09:01;;;;;;;27.27;13.45;;;8.80;99.90;;;;;;5110679;28;20381;-55
2021/12/16 15:11:47;;;;;;;26.05;13.98;;;8.70;99.90;;;;;;5110857;28;20385;-56
2021/12/16 15:14:26;;;;;;;23.88;12.23;;;8.70;99.90;;;;;;5109210;28;20397;-54
2021/12/16 15:17:19;;;;;;;23.30;12.93;;;8.70;99.90;;;;;;5110475;27;20381;-54
2021/12/16 15:39:54;;;;;;;31.30;14.23;;;7.90;99.90;;;;;;5108238;28;20390;-56
2021/12/16 15:45:23;;;;;;;33.63;15.30;;;7.70;99.90;;;;;;5104332;27;20905;-56
2021/12/16 15:48:00;;;;;;;29.23;15.23;;;7.60;99.90;;;;;;5121808;27;20478;-57
2021/12/16 15:50:28;;;;;;;26.85;14.35;;;7.50;99.90;;;;;;5089194;28;20389;-56
2021/12/16 15:52:55;;;;;;;30.95;15.38;;;7.50;99.90;;;;;;5088483;28;20384;-57
2021/12/16 15:55:52;;;;;;;30.27;12.70;;;7.40;99.90;;;;;;5100052;28;20989;-56
2021/12/16 15:58:23;;;;;;;29.98;14.10;;;7.50;99.90;;;;;;5076936;28;20710;-57
2021/12/16 16:00:53;;;;;;;25.70;13.15;;;7.40;99.90;;;;;;5101789;28;20746;-58
2021/12/16 16:03:21;;;;;;;25.63;13.30;;;7.40;99.90;;;;;;5107608;27;20491;-57
2021/12/16 16:05:57;;;;;;;28.42;14.25;;;7.40;99.90;;;;;;5108127;28;20408;-57
2021/12/16 16:08:26;;;;;;;28.33;13.48;;;7.50;99.90;;;;;;5107251;28;20880;-57
2021/12/16 16:11:03;;;;;;;28.38;14.35;;;7.50;99.90;;;;;;5102842;28;20449;-57
2021/12/16 16:13:32;;;;;;;31.43;14.53;;;7.40;99.90;;;;;;5104750;27;20769;-58
2021/12/16 16:16:02;;;;;;;27.90;13.37;;;7.20;99.90;;;;;;5107520;28;20544;-60
2021/12/16 16:21:03;;;;;;;27.87;13.83;;;7.10;99.90;;;;;;5108832;28;20376;-60
2021/12/16 16:23:30;;;;;;;25.40;13.95;;;7.10;99.90;;;;;;5108237;28;20947;-55
2021/12/16 16:26:01;;;;;;;38.25;18.10;;;7.20;99.90;;;;;;5108943;28;20818;-55
2021/12/16 16:28:28;;;;;;;35.45;20.45;;;7.30;99.90;;;;;;5108653;28;20377;-54
2021/12/16 16:30:54;;;;;;;31.67;17.83;;;7.40;99.90;;;;;;5109017;28;20469;-55
2021/12/16 16:33:23;;;;;;;37.20;23.67;;;7.50;99.90;;;;;;5108060;28;20408;-55
2021/12/16 16:35:58;;;;;;;38.42;23.92;;;7.60;99.90;;;;;;5108856;28;20391;-54
2021/12/16 16:38:30;;;;;;;33.78;19.85;;;7.70;99.90;;;;;;5108237;28;20466;-55
2021/12/16 16:40:58;;;;;;;31.30;17.45;;;7.70;99.90;;;;;;5109132;28;20820;-55
2021/12/16 16:43:29;;;;;;;26.45;14.93;;;7.70;99.90;;;;;;5108260;28;20403;-56
2021/12/16 16:46:01;;;;;;;32.88;17.95;;;7.70;99.90;;;;;;5108693;28;20515;-55
2021/12/16 16:48:47;;;;;;;30.70;17.08;;;7.60;99.90;;;;;;5101698;28;20403;-54
2021/12/16 16:51:18;;;;;;;67.72;36.97;;;7.50;99.90;;;;;;5100828;28;20483;-54
2021/12/16 16:54:04;;;;;;;37.53;18.92;;;7.30;99.90;;;;;;5107056;28;20737;-55
2021/12/16 16:57:09;;;;;;;57.50;30.90;;;7.20;99.90;;;;;;5094401;28;20483;-55
2021/12/16 16:59:50;;;;;;;31.87;16.70;;;6.90;99.90;;;;;;5107358;28;20879;-55
2021/12/16 17:02:40;;;;;;;39.85;23.60;;;6.80;99.90;;;;;;5106071;28;20436;-54
2021/12/16 17:05:52;;;;;;;45.55;27.90;;;6.80;99.90;;;;;;5107803;28;20419;-59
2021/12/16 17:08:22;;;;;;;35.40;21.10;;;6.80;99.90;;;;;;5086740;28;20420;-56
2021/12/16 17:10:53;;;;;;;32.65;19.35;;;6.50;99.90;;;;;;5105580;28;20426;-58